<?xml version="1.0"?>
<gpx xmlns="http://www.topografix.com/GPX/1/1" xmlns:xsi="http://www.w3.org/2001/XMLSchema-instance" xmlns:wptx1="http://www.garmin.com/xmlschemas/WaypointExtension/v1" xmlns:gpxtrx="http://www.garmin.com/xmlschemas/GpxExtensions/v3" xmlns:gpxtpx="http://www.garmin.com/xmlschemas/TrackPointExtension/v1" xmlns:gpxx="http://www.garmin.com/xmlschemas/GpxExtensions/v3" xmlns:trp="http://www.garmin.com/xmlschemas/TripExtensions/v1" xmlns:adv="http://www.garmin.com/xmlschemas/AdventuresExtensions/v1" xmlns:prs="http://www.garmin.com/xmlschemas/PressureExtension/v1" xmlns:tmd="http://www.garmin.com/xmlschemas/TripMetaDataExtensions/v1" xmlns:vptm="http://www.garmin.com/xmlschemas/ViaPointTransportationModeExtensions/v1" xmlns:ctx="http://www.garmin.com/xmlschemas/CreationTimeExtension/v1" xmlns:gpxacc="http://www.garmin.com/xmlschemas/AccelerationExtension/v1" xmlns:gpxpx="http://www.garmin.com/xmlschemas/PowerExtension/v1" xmlns:vidx1="http://www.garmin.com/xmlschemas/VideoExtension/v1" creator="Garmin Desktop App" version="1.1" xsi:schemaLocation="http://www.topografix.com/GPX/1/1 http://www.topografix.com/GPX/1/1/gpx.xsd http://www.garmin.com/xmlschemas/WaypointExtension/v1 http://www8.garmin.com/xmlschemas/WaypointExtensionv1.xsd http://www.garmin.com/xmlschemas/TrackPointExtension/v1 http://www.garmin.com/xmlschemas/TrackPointExtensionv1.xsd http://www.garmin.com/xmlschemas/GpxExtensions/v3 http://www8.garmin.com/xmlschemas/GpxExtensionsv3.xsd http://www.garmin.com/xmlschemas/ActivityExtension/v1 http://www8.garmin.com/xmlschemas/ActivityExtensionv1.xsd http://www.garmin.com/xmlschemas/AdventuresExtensions/v1 http://www8.garmin.com/xmlschemas/AdventuresExtensionv1.xsd http://www.garmin.com/xmlschemas/PressureExtension/v1 http://www.garmin.com/xmlschemas/PressureExtensionv1.xsd http://www.garmin.com/xmlschemas/TripExtensions/v1 http://www.garmin.com/xmlschemas/TripExtensionsv1.xsd http://www.garmin.com/xmlschemas/TripMetaDataExtensions/v1 http://www.garmin.com/xmlschemas/TripMetaDataExtensionsv1.xsd http://www.garmin.com/xmlschemas/ViaPointTransportationModeExtensions/v1 http://www.garmin.com/xmlschemas/ViaPointTransportationModeExtensionsv1.xsd http://www.garmin.com/xmlschemas/CreationTimeExtension/v1 http://www.garmin.com/xmlschemas/CreationTimeExtensionsv1.xsd http://www.garmin.com/xmlschemas/AccelerationExtension/v1 http://www.garmin.com/xmlschemas/AccelerationExtensionv1.xsd http://www.garmin.com/xmlschemas/PowerExtension/v1 http://www.garmin.com/xmlschemas/PowerExtensionv1.xsd http://www.garmin.com/xmlschemas/VideoExtension/v1 http://www.garmin.com/xmlschemas/VideoExtensionv1.xsd">

  <metadata>
    <link href="http://www.garmin.com">
      <text>Garmin International</text>
    </link>
    <time>2018-02-26T07:31:04Z</time>
    <bounds maxlat="14.230869049206376" maxlon="101.407318934798241" minlat="14.180666143074632" minlon="101.335784504190087"/>
  </metadata>

  <wpt lat="14.21677378937602" lon="101.406523324549198">
    <ele>49</ele>
    <name>KhaoYaiGrandView</name>
    <cmt>31-AUG-13 12:51:48</cmt>
    <desc>31-AUG-13 12:51:48</desc>
    <sym>Lodging</sym>
    <type>user</type>
    <extensions>
      <gpxx:WaypointExtension>
        <gpxx:DisplayMode>SymbolAndName</gpxx:DisplayMode>
      </gpxx:WaypointExtension>
      <wptx1:WaypointExtension>
        <wptx1:DisplayMode>SymbolAndName</wptx1:DisplayMode>
      </wptx1:WaypointExtension>
    </extensions>
  </wpt>

  <wpt lat="14.204500503838062" lon="101.34279009886086">
    <ele>30</ele>
    <name>Water Sun</name>
    <cmt>01-SEP-13 10:43:25</cmt>
    <desc>01-SEP-13 10:43:25</desc>
    <sym>Drinking Water</sym>
    <type>user</type>
    <extensions>
      <gpxx:WaypointExtension>
        <gpxx:DisplayMode>SymbolAndName</gpxx:DisplayMode>
      </gpxx:WaypointExtension>
      <wptx1:WaypointExtension>
        <wptx1:DisplayMode>SymbolAndName</wptx1:DisplayMode>
      </wptx1:WaypointExtension>
    </extensions>
  </wpt>

  <trk>
    <name>Sunday 006</name>
    <extensions>
      <gpxx:TrackExtension>
        <gpxx:DisplayColor>Green</gpxx:DisplayColor>
      </gpxx:TrackExtension>
    </extensions>
    <trkseg>
      <trkpt lat="14.216774543747306" lon="101.406505471095443">
        <ele>43.3966064453125</ele>
        <time>2013-09-01T03:01:05Z</time>
      </trkpt>
      <trkpt lat="14.216801533475518" lon="101.406814679503441">
        <ele>42.4354248046875</ele>
        <time>2013-09-01T03:01:19Z</time>
      </trkpt>
      <trkpt lat="14.217031616717577" lon="101.407298902049661">
        <ele>40.0321044921875</ele>
        <time>2013-09-01T03:01:35Z</time>
      </trkpt>
      <trkpt lat="14.217058941721916" lon="101.407318934798241">
        <ele>40.0321044921875</ele>
        <time>2013-09-01T03:01:36Z</time>
      </trkpt>
      <trkpt lat="14.217250803485513" lon="101.40710779465735">
        <ele>37.628662109375</ele>
        <time>2013-09-01T03:01:44Z</time>
      </trkpt>
      <trkpt lat="14.217459848150611" lon="101.406434811651707">
        <ele>35.7060546875</ele>
        <time>2013-09-01T03:02:01Z</time>
      </trkpt>
      <trkpt lat="14.217542912811041" lon="101.406189221888781">
        <ele>35.2254638671875</ele>
        <time>2013-09-01T03:02:07Z</time>
      </trkpt>
      <trkpt lat="14.217579541727901" lon="101.406109677627683">
        <ele>35.2254638671875</ele>
        <time>2013-09-01T03:02:09Z</time>
      </trkpt>
      <trkpt lat="14.217833681032062" lon="101.405950170010328">
        <ele>34.26416015625</ele>
        <time>2013-09-01T03:02:16Z</time>
      </trkpt>
      <trkpt lat="14.218250010162592" lon="101.405934160575271">
        <ele>33.783447265625</ele>
        <time>2013-09-01T03:02:27Z</time>
      </trkpt>
      <trkpt lat="14.218349419534206" lon="101.405675495043397">
        <ele>32.341552734375</ele>
        <time>2013-09-01T03:02:35Z</time>
      </trkpt>
      <trkpt lat="14.218582939356565" lon="101.405633501708508">
        <ele>32.822265625</ele>
        <time>2013-09-01T03:02:41Z</time>
      </trkpt>
      <trkpt lat="14.219517521560192" lon="101.405652444809675">
        <ele>37.628662109375</ele>
        <time>2013-09-01T03:03:03Z</time>
      </trkpt>
      <trkpt lat="14.219639813527465" lon="101.405678344890475">
        <ele>37.1480712890625</ele>
        <time>2013-09-01T03:03:08Z</time>
      </trkpt>
      <trkpt lat="14.220359064638615" lon="101.405687397345901">
        <ele>38.109375</ele>
        <time>2013-09-01T03:03:26Z</time>
      </trkpt>
      <trkpt lat="14.221282498911023" lon="101.405651774257421">
        <ele>37.628662109375</ele>
        <time>2013-09-01T03:03:46Z</time>
      </trkpt>
      <trkpt lat="14.222074756398797" lon="101.40559108927846">
        <ele>40.0321044921875</ele>
        <time>2013-09-01T03:04:06Z</time>
      </trkpt>
      <trkpt lat="14.222143823280931" lon="101.405522944405675">
        <ele>40.5128173828125</ele>
        <time>2013-09-01T03:04:09Z</time>
      </trkpt>
      <trkpt lat="14.222172740846872" lon="101.405060850083828">
        <ele>40.993408203125</ele>
        <time>2013-09-01T03:04:18Z</time>
      </trkpt>
      <trkpt lat="14.222043827176094" lon="101.404493479058146">
        <ele>40.5128173828125</ele>
        <time>2013-09-01T03:04:33Z</time>
      </trkpt>
      <trkpt lat="14.222069811075926" lon="101.404479900375009">
        <ele>40.0321044921875</ele>
        <time>2013-09-01T03:04:34Z</time>
      </trkpt>
      <trkpt lat="14.222551435232162" lon="101.404138840734959">
        <ele>38.109375</ele>
        <time>2013-09-01T03:04:49Z</time>
      </trkpt>
      <trkpt lat="14.222579682245851" lon="101.404107743874192">
        <ele>38.109375</ele>
        <time>2013-09-01T03:04:50Z</time>
      </trkpt>
      <trkpt lat="14.223005902022123" lon="101.403497876599431">
        <ele>35.2254638671875</ele>
        <time>2013-09-01T03:05:08Z</time>
      </trkpt>
      <trkpt lat="14.223386608064175" lon="101.403187913820148">
        <ele>35.2254638671875</ele>
        <time>2013-09-01T03:05:25Z</time>
      </trkpt>
      <trkpt lat="14.223694978281856" lon="101.402880717068911">
        <ele>36.186767578125</ele>
        <time>2013-09-01T03:05:43Z</time>
      </trkpt>
      <trkpt lat="14.22409781254828" lon="101.402672929689288">
        <ele>36.66748046875</ele>
        <time>2013-09-01T03:05:59Z</time>
      </trkpt>
      <trkpt lat="14.224548507481813" lon="101.402335809543729">
        <ele>36.66748046875</ele>
        <time>2013-09-01T03:06:18Z</time>
      </trkpt>
      <trkpt lat="14.224683959037066" lon="101.402066582813859">
        <ele>34.26416015625</ele>
        <time>2013-09-01T03:06:31Z</time>
      </trkpt>
      <trkpt lat="14.224882358685136" lon="101.401593592017889">
        <ele>32.341552734375</ele>
        <time>2013-09-01T03:06:47Z</time>
      </trkpt>
      <trkpt lat="14.225095426663756" lon="101.40109327621758">
        <ele>30.4188232421875</ele>
        <time>2013-09-01T03:07:03Z</time>
      </trkpt>
      <trkpt lat="14.225202379748225" lon="101.400705948472023">
        <ele>29.45751953125</ele>
        <time>2013-09-01T03:07:18Z</time>
      </trkpt>
      <trkpt lat="14.225278655067086" lon="101.40034569427371">
        <ele>29.45751953125</ele>
        <time>2013-09-01T03:07:35Z</time>
      </trkpt>
      <trkpt lat="14.225290222093463" lon="101.400119215250015">
        <ele>28.9769287109375</ele>
        <time>2013-09-01T03:07:49Z</time>
      </trkpt>
      <trkpt lat="14.225313272327185" lon="101.39977547340095">
        <ele>30.8995361328125</ele>
        <time>2013-09-01T03:08:07Z</time>
      </trkpt>
      <trkpt lat="14.225328275933862" lon="101.39962887391448">
        <ele>30.4188232421875</ele>
        <time>2013-09-01T03:08:19Z</time>
      </trkpt>
      <trkpt lat="14.225315619260073" lon="101.399491745978594">
        <ele>32.341552734375</ele>
        <time>2013-09-01T03:08:35Z</time>
      </trkpt>
      <trkpt lat="14.225363312289119" lon="101.399337770417333">
        <ele>29.45751953125</ele>
        <time>2013-09-01T03:08:47Z</time>
      </trkpt>
      <trkpt lat="14.225345961749554" lon="101.399092096835375">
        <ele>28.9769287109375</ele>
        <time>2013-09-01T03:09:05Z</time>
      </trkpt>
      <trkpt lat="14.225368425250053" lon="101.398937199264765">
        <ele>29.45751953125</ele>
        <time>2013-09-01T03:09:19Z</time>
      </trkpt>
      <trkpt lat="14.225435312837362" lon="101.398762604221702">
        <ele>28.9769287109375</ele>
        <time>2013-09-01T03:09:32Z</time>
      </trkpt>
      <trkpt lat="14.22560571692884" lon="101.398465884849429">
        <ele>25.1317138671875</ele>
        <time>2013-09-01T03:09:50Z</time>
      </trkpt>
      <trkpt lat="14.225677046924829" lon="101.398385250940919">
        <ele>25.6123046875</ele>
        <time>2013-09-01T03:10:06Z</time>
      </trkpt>
      <trkpt lat="14.225754663348198" lon="101.398226665332913">
        <ele>25.1317138671875</ele>
        <time>2013-09-01T03:10:21Z</time>
      </trkpt>
      <trkpt lat="14.225894557312131" lon="101.397978225722909">
        <ele>25.1317138671875</ele>
        <time>2013-09-01T03:10:40Z</time>
      </trkpt>
      <trkpt lat="14.225973933935165" lon="101.397848557680845">
        <ele>25.6123046875</ele>
        <time>2013-09-01T03:10:53Z</time>
      </trkpt>
      <trkpt lat="14.226023303344846" lon="101.397763900458813">
        <ele>27.0543212890625</ele>
        <time>2013-09-01T03:11:10Z</time>
      </trkpt>
      <trkpt lat="14.226099411025643" lon="101.397670609876513">
        <ele>28.4962158203125</ele>
        <time>2013-09-01T03:11:24Z</time>
      </trkpt>
      <trkpt lat="14.22618331387639" lon="101.397514371201396">
        <ele>28.9769287109375</ele>
        <time>2013-09-01T03:11:39Z</time>
      </trkpt>
      <trkpt lat="14.226107792928815" lon="101.397221339866519">
        <ele>29.45751953125</ele>
        <time>2013-09-01T03:11:53Z</time>
      </trkpt>
      <trkpt lat="14.225485352799296" lon="101.396848512813449">
        <ele>27.534912109375</ele>
        <time>2013-09-01T03:12:12Z</time>
      </trkpt>
      <trkpt lat="14.22531302087009" lon="101.396760167554021">
        <ele>26.5736083984375</ele>
        <time>2013-09-01T03:12:16Z</time>
      </trkpt>
      <trkpt lat="14.224685970693827" lon="101.396402092650533">
        <ele>25.1317138671875</ele>
        <time>2013-09-01T03:12:34Z</time>
      </trkpt>
      <trkpt lat="14.2246338352561" lon="101.396359512582421">
        <ele>25.1317138671875</ele>
        <time>2013-09-01T03:12:37Z</time>
      </trkpt>
      <trkpt lat="14.224845562130213" lon="101.396036641672254">
        <ele>25.6123046875</ele>
        <time>2013-09-01T03:12:48Z</time>
      </trkpt>
      <trkpt lat="14.225109675899148" lon="101.395603464916348">
        <ele>25.1317138671875</ele>
        <time>2013-09-01T03:12:59Z</time>
      </trkpt>
      <trkpt lat="14.225155524909496" lon="101.395414117723703">
        <ele>25.1317138671875</ele>
        <time>2013-09-01T03:13:03Z</time>
      </trkpt>
      <trkpt lat="14.225100707262754" lon="101.394506106153131">
        <ele>25.1317138671875</ele>
        <time>2013-09-01T03:13:21Z</time>
      </trkpt>
      <trkpt lat="14.225141443312168" lon="101.393304727971554">
        <ele>25.6123046875</ele>
        <time>2013-09-01T03:13:43Z</time>
      </trkpt>
      <trkpt lat="14.225307488813996" lon="101.392244920134544">
        <ele>25.6123046875</ele>
        <time>2013-09-01T03:14:02Z</time>
      </trkpt>
      <trkpt lat="14.225495830178261" lon="101.391071537509561">
        <ele>25.6123046875</ele>
        <time>2013-09-01T03:14:24Z</time>
      </trkpt>
      <trkpt lat="14.225767990574241" lon="101.390096889808774">
        <ele>26.0928955078125</ele>
        <time>2013-09-01T03:14:42Z</time>
      </trkpt>
      <trkpt lat="14.226143499836326" lon="101.38909600675106">
        <ele>25.6123046875</ele>
        <time>2013-09-01T03:15:03Z</time>
      </trkpt>
      <trkpt lat="14.226467963308096" lon="101.38812311924994">
        <ele>25.6123046875</ele>
        <time>2013-09-01T03:15:21Z</time>
      </trkpt>
      <trkpt lat="14.226601403206587" lon="101.387161547318101">
        <ele>26.0928955078125</ele>
        <time>2013-09-01T03:15:39Z</time>
      </trkpt>
      <trkpt lat="14.226666362956166" lon="101.386316986754537">
        <ele>27.0543212890625</ele>
        <time>2013-09-01T03:15:55Z</time>
      </trkpt>
      <trkpt lat="14.226547675207257" lon="101.38533161021769">
        <ele>27.534912109375</ele>
        <time>2013-09-01T03:16:13Z</time>
      </trkpt>
      <trkpt lat="14.226278113201261" lon="101.384268868714571">
        <ele>26.0928955078125</ele>
        <time>2013-09-01T03:16:32Z</time>
      </trkpt>
      <trkpt lat="14.226089688017964" lon="101.383677944540977">
        <ele>25.6123046875</ele>
        <time>2013-09-01T03:16:44Z</time>
      </trkpt>
      <trkpt lat="14.226174429059029" lon="101.383504020050168">
        <ele>26.0928955078125</ele>
        <time>2013-09-01T03:16:49Z</time>
      </trkpt>
      <trkpt lat="14.226897787302732" lon="101.383114093914628">
        <ele>25.6123046875</ele>
        <time>2013-09-01T03:17:06Z</time>
      </trkpt>
      <trkpt lat="14.227933371439576" lon="101.382565163075924">
        <ele>25.6123046875</ele>
        <time>2013-09-01T03:17:29Z</time>
      </trkpt>
      <trkpt lat="14.228965602815151" lon="101.382116982713342">
        <ele>28.4962158203125</ele>
        <time>2013-09-01T03:17:51Z</time>
      </trkpt>
      <trkpt lat="14.229920385405421" lon="101.381867537274957">
        <ele>27.534912109375</ele>
        <time>2013-09-01T03:18:10Z</time>
      </trkpt>
      <trkpt lat="14.230779279023409" lon="101.381657989695668">
        <ele>27.534912109375</ele>
        <time>2013-09-01T03:18:29Z</time>
      </trkpt>
      <trkpt lat="14.230869049206376" lon="101.381619935855269">
        <ele>28.4962158203125</ele>
        <time>2013-09-01T03:18:32Z</time>
      </trkpt>
      <trkpt lat="14.230859577655792" lon="101.381556317210197">
        <ele>28.4962158203125</ele>
        <time>2013-09-01T03:18:36Z</time>
      </trkpt>
      <trkpt lat="14.230464957654476" lon="101.381264291703701">
        <ele>29.45751953125</ele>
        <time>2013-09-01T03:18:51Z</time>
      </trkpt>
      <trkpt lat="14.230028679594398" lon="101.380914179608226">
        <ele>28.4962158203125</ele>
        <time>2013-09-01T03:19:09Z</time>
      </trkpt>
      <trkpt lat="14.229864981025457" lon="101.380756432190537">
        <ele>28.4962158203125</ele>
        <time>2013-09-01T03:19:15Z</time>
      </trkpt>
      <trkpt lat="14.229427026584744" lon="101.380149330943823">
        <ele>28.4962158203125</ele>
        <time>2013-09-01T03:19:31Z</time>
      </trkpt>
      <trkpt lat="14.229245977476239" lon="101.379761584103107">
        <ele>32.341552734375</ele>
        <time>2013-09-01T03:19:39Z</time>
      </trkpt>
      <trkpt lat="14.229021761566401" lon="101.379126906394958">
        <ele>32.341552734375</ele>
        <time>2013-09-01T03:19:51Z</time>
      </trkpt>
      <trkpt lat="14.229048667475581" lon="101.378924315795302">
        <ele>31.8607177734375</ele>
        <time>2013-09-01T03:19:55Z</time>
      </trkpt>
      <trkpt lat="14.229458542540669" lon="101.378292236477137">
        <ele>31.380126953125</ele>
        <time>2013-09-01T03:20:12Z</time>
      </trkpt>
      <trkpt lat="14.229609668254852" lon="101.377740874886513">
        <ele>29.45751953125</ele>
        <time>2013-09-01T03:20:28Z</time>
      </trkpt>
      <trkpt lat="14.229577230289578" lon="101.377552701160312">
        <ele>29.45751953125</ele>
        <time>2013-09-01T03:20:32Z</time>
      </trkpt>
      <trkpt lat="14.229258969426155" lon="101.37696135789156">
        <ele>31.380126953125</ele>
        <time>2013-09-01T03:20:47Z</time>
      </trkpt>
      <trkpt lat="14.22918638214469" lon="101.376859936863184">
        <ele>33.783447265625</ele>
        <time>2013-09-01T03:20:50Z</time>
      </trkpt>
      <trkpt lat="14.228876167908311" lon="101.3764204736799">
        <ele>41.9547119140625</ele>
        <time>2013-09-01T03:21:04Z</time>
      </trkpt>
      <trkpt lat="14.228672320023179" lon="101.376000959426165">
        <ele>40.5128173828125</ele>
        <time>2013-09-01T03:21:20Z</time>
      </trkpt>
      <trkpt lat="14.228510800749063" lon="101.375564597547054">
        <ele>40.993408203125</ele>
        <time>2013-09-01T03:21:40Z</time>
      </trkpt>
      <trkpt lat="14.22838649712503" lon="101.375202834606171">
        <ele>43.3966064453125</ele>
        <time>2013-09-01T03:21:58Z</time>
      </trkpt>
      <trkpt lat="14.228266887366772" lon="101.374819194898009">
        <ele>47.7225341796875</ele>
        <time>2013-09-01T03:22:17Z</time>
      </trkpt>
      <trkpt lat="14.228222882375121" lon="101.374290212988853">
        <ele>50.1259765625</ele>
        <time>2013-09-01T03:22:36Z</time>
      </trkpt>
      <trkpt lat="14.228362189605832" lon="101.373788053169847">
        <ele>47.7225341796875</ele>
        <time>2013-09-01T03:22:52Z</time>
      </trkpt>
      <trkpt lat="14.228477692231536" lon="101.373404497280717">
        <ele>51.56787109375</ele>
        <time>2013-09-01T03:23:08Z</time>
      </trkpt>
      <trkpt lat="14.228589171543717" lon="101.372842825949192">
        <ele>48.203369140625</ele>
        <time>2013-09-01T03:23:25Z</time>
      </trkpt>
      <trkpt lat="14.228650024160743" lon="101.372331697493792">
        <ele>43.8773193359375</ele>
        <time>2013-09-01T03:23:43Z</time>
      </trkpt>
      <trkpt lat="14.228655723854899" lon="101.372058112174273">
        <ele>40.0321044921875</ele>
        <time>2013-09-01T03:23:51Z</time>
      </trkpt>
      <trkpt lat="14.228563774377108" lon="101.371325785294175">
        <ele>38.590087890625</ele>
        <time>2013-09-01T03:24:07Z</time>
      </trkpt>
      <trkpt lat="14.22840116545558" lon="101.37048214673996">
        <ele>37.1480712890625</ele>
        <time>2013-09-01T03:24:26Z</time>
      </trkpt>
      <trkpt lat="14.228073852136731" lon="101.370240077376366">
        <ele>37.1480712890625</ele>
        <time>2013-09-01T03:24:38Z</time>
      </trkpt>
      <trkpt lat="14.226995520293713" lon="101.369973951950669">
        <ele>35.7060546875</ele>
        <time>2013-09-01T03:25:02Z</time>
      </trkpt>
      <trkpt lat="14.226075941696763" lon="101.369774797931314">
        <ele>30.8995361328125</ele>
        <time>2013-09-01T03:25:21Z</time>
      </trkpt>
      <trkpt lat="14.225816521793604" lon="101.369721740484238">
        <ele>30.8995361328125</ele>
        <time>2013-09-01T03:25:27Z</time>
      </trkpt>
      <trkpt lat="14.225678723305464" lon="101.369747556746006">
        <ele>29.45751953125</ele>
        <time>2013-09-01T03:25:30Z</time>
      </trkpt>
      <trkpt lat="14.225407065823674" lon="101.369857862591743">
        <ele>29.45751953125</ele>
        <time>2013-09-01T03:25:36Z</time>
      </trkpt>
      <trkpt lat="14.224966680631042" lon="101.369744539260864">
        <ele>28.9769287109375</ele>
        <time>2013-09-01T03:25:46Z</time>
      </trkpt>
      <trkpt lat="14.224114241078496" lon="101.369456704705954">
        <ele>29.45751953125</ele>
        <time>2013-09-01T03:26:05Z</time>
      </trkpt>
      <trkpt lat="14.223472438752651" lon="101.369249671697617">
        <ele>30.4188232421875</ele>
        <time>2013-09-01T03:26:21Z</time>
      </trkpt>
      <trkpt lat="14.222735585644841" lon="101.369005171582103">
        <ele>27.534912109375</ele>
        <time>2013-09-01T03:26:38Z</time>
      </trkpt>
      <trkpt lat="14.222621927037835" lon="101.368972733616829">
        <ele>27.534912109375</ele>
        <time>2013-09-01T03:26:42Z</time>
      </trkpt>
      <trkpt lat="14.222355717793107" lon="101.369327120482922">
        <ele>26.0928955078125</ele>
        <time>2013-09-01T03:26:53Z</time>
      </trkpt>
      <trkpt lat="14.222119096666574" lon="101.369768595322967">
        <ele>23.6895751953125</ele>
        <time>2013-09-01T03:27:04Z</time>
      </trkpt>
      <trkpt lat="14.221921283751726" lon="101.369853839278221">
        <ele>24.1702880859375</ele>
        <time>2013-09-01T03:27:09Z</time>
      </trkpt>
      <trkpt lat="14.221558934077621" lon="101.369878482073545">
        <ele>21.7669677734375</ele>
        <time>2013-09-01T03:27:17Z</time>
      </trkpt>
      <trkpt lat="14.220611108466983" lon="101.370119210332632">
        <ele>19.36376953125</ele>
        <time>2013-09-01T03:27:38Z</time>
      </trkpt>
      <trkpt lat="14.220460569486022" lon="101.370210405439138">
        <ele>19.8443603515625</ele>
        <time>2013-09-01T03:27:42Z</time>
      </trkpt>
      <trkpt lat="14.220352862030268" lon="101.370378294959664">
        <ele>22.24755859375</ele>
        <time>2013-09-01T03:27:47Z</time>
      </trkpt>
      <trkpt lat="14.220246076583862" lon="101.370818931609392">
        <ele>24.6510009765625</ele>
        <time>2013-09-01T03:27:58Z</time>
      </trkpt>
      <trkpt lat="14.220109200105071" lon="101.370968548581004">
        <ele>24.6510009765625</ele>
        <time>2013-09-01T03:28:03Z</time>
      </trkpt>
      <trkpt lat="14.21974265947938" lon="101.370962262153625">
        <ele>22.728271484375</ele>
        <time>2013-09-01T03:28:15Z</time>
      </trkpt>
      <trkpt lat="14.219681890681386" lon="101.370970476418734">
        <ele>23.208984375</ele>
        <time>2013-09-01T03:28:26Z</time>
      </trkpt>
      <trkpt lat="14.219609219580889" lon="101.370963351801038">
        <ele>23.6895751953125</ele>
        <time>2013-09-01T03:28:42Z</time>
      </trkpt>
      <trkpt lat="14.219680465757847" lon="101.370939463376999">
        <ele>23.6895751953125</ele>
        <time>2013-09-01T03:28:52Z</time>
      </trkpt>
      <trkpt lat="14.219654984772205" lon="101.370919598266482">
        <ele>23.6895751953125</ele>
        <time>2013-09-01T03:28:54Z</time>
      </trkpt>
      <trkpt lat="14.219451053068042" lon="101.370829157531261">
        <ele>23.6895751953125</ele>
        <time>2013-09-01T03:29:07Z</time>
      </trkpt>
      <trkpt lat="14.219143940135837" lon="101.37076411396265">
        <ele>22.728271484375</ele>
        <time>2013-09-01T03:29:18Z</time>
      </trkpt>
      <trkpt lat="14.218846298754215" lon="101.370620615780354">
        <ele>24.6510009765625</ele>
        <time>2013-09-01T03:29:28Z</time>
      </trkpt>
      <trkpt lat="14.218609593808651" lon="101.370580717921257">
        <ele>25.1317138671875</ele>
        <time>2013-09-01T03:29:34Z</time>
      </trkpt>
      <trkpt lat="14.218432484194636" lon="101.370445098727942">
        <ele>25.1317138671875</ele>
        <time>2013-09-01T03:29:40Z</time>
      </trkpt>
      <trkpt lat="14.218147667124867" lon="101.370120216161013">
        <ele>26.0928955078125</ele>
        <time>2013-09-01T03:29:49Z</time>
      </trkpt>
      <trkpt lat="14.217461189255118" lon="101.369447400793433">
        <ele>23.6895751953125</ele>
        <time>2013-09-01T03:30:09Z</time>
      </trkpt>
      <trkpt lat="14.217352056875825" lon="101.369189573451877">
        <ele>25.6123046875</ele>
        <time>2013-09-01T03:30:17Z</time>
      </trkpt>
      <trkpt lat="14.21730687841773" lon="101.369108939543366">
        <ele>26.5736083984375</ele>
        <time>2013-09-01T03:30:19Z</time>
      </trkpt>
      <trkpt lat="14.217262957245111" lon="101.368924453854561">
        <ele>25.6123046875</ele>
        <time>2013-09-01T03:30:23Z</time>
      </trkpt>
      <trkpt lat="14.217002782970667" lon="101.368260271847248">
        <ele>24.6510009765625</ele>
        <time>2013-09-01T03:30:40Z</time>
      </trkpt>
      <trkpt lat="14.216982331126928" lon="101.368128089234233">
        <ele>24.1702880859375</ele>
        <time>2013-09-01T03:30:43Z</time>
      </trkpt>
      <trkpt lat="14.217029102146626" lon="101.367544624954462">
        <ele>23.6895751953125</ele>
        <time>2013-09-01T03:30:58Z</time>
      </trkpt>
      <trkpt lat="14.2173205409199" lon="101.36692981235683">
        <ele>22.24755859375</ele>
        <time>2013-09-01T03:31:14Z</time>
      </trkpt>
      <trkpt lat="14.217336969450116" lon="101.366841550916433">
        <ele>22.728271484375</ele>
        <time>2013-09-01T03:31:16Z</time>
      </trkpt>
      <trkpt lat="14.217341747134924" lon="101.366750188171864">
        <ele>23.208984375</ele>
        <time>2013-09-01T03:31:18Z</time>
      </trkpt>
      <trkpt lat="14.217242170125246" lon="101.366166556254029">
        <ele>24.6510009765625</ele>
        <time>2013-09-01T03:31:32Z</time>
      </trkpt>
      <trkpt lat="14.217192381620407" lon="101.365904035046697">
        <ele>23.6895751953125</ele>
        <time>2013-09-01T03:31:38Z</time>
      </trkpt>
      <trkpt lat="14.217153405770659" lon="101.365814851596951">
        <ele>24.1702880859375</ele>
        <time>2013-09-01T03:31:40Z</time>
      </trkpt>
      <trkpt lat="14.217074699699879" lon="101.365697924047709">
        <ele>24.1702880859375</ele>
        <time>2013-09-01T03:31:43Z</time>
      </trkpt>
      <trkpt lat="14.216665076091886" lon="101.365515952929854">
        <ele>26.5736083984375</ele>
        <time>2013-09-01T03:31:53Z</time>
      </trkpt>
      <trkpt lat="14.216519817709923" lon="101.365426434203982">
        <ele>26.0928955078125</ele>
        <time>2013-09-01T03:31:57Z</time>
      </trkpt>
      <trkpt lat="14.216430969536304" lon="101.365332473069429">
        <ele>25.1317138671875</ele>
        <time>2013-09-01T03:32:00Z</time>
      </trkpt>
      <trkpt lat="14.216276910156012" lon="101.3652597181499">
        <ele>24.6510009765625</ele>
        <time>2013-09-01T03:32:04Z</time>
      </trkpt>
      <trkpt lat="14.215936018154025" lon="101.365201128646731">
        <ele>23.208984375</ele>
        <time>2013-09-01T03:32:12Z</time>
      </trkpt>
      <trkpt lat="14.215602250769734" lon="101.364964004606009">
        <ele>20.8056640625</ele>
        <time>2013-09-01T03:32:24Z</time>
      </trkpt>
      <trkpt lat="14.215507283806801" lon="101.364712212234735">
        <ele>21.286376953125</ele>
        <time>2013-09-01T03:32:31Z</time>
      </trkpt>
      <trkpt lat="14.215069077908993" lon="101.364128077402711">
        <ele>20.324951171875</ele>
        <time>2013-09-01T03:32:48Z</time>
      </trkpt>
      <trkpt lat="14.215014260262251" lon="101.364065716043115">
        <ele>20.324951171875</ele>
        <time>2013-09-01T03:32:50Z</time>
      </trkpt>
      <trkpt lat="14.214966734871268" lon="101.363939819857478">
        <ele>19.8443603515625</ele>
        <time>2013-09-01T03:32:53Z</time>
      </trkpt>
      <trkpt lat="14.214957347139716" lon="101.363760698586702">
        <ele>19.8443603515625</ele>
        <time>2013-09-01T03:32:57Z</time>
      </trkpt>
      <trkpt lat="14.215092044323683" lon="101.362944217398763">
        <ele>19.36376953125</ele>
        <time>2013-09-01T03:33:15Z</time>
      </trkpt>
      <trkpt lat="14.215113585814834" lon="101.362435519695282">
        <ele>18.883056640625</ele>
        <time>2013-09-01T03:33:26Z</time>
      </trkpt>
      <trkpt lat="14.215100845322013" lon="101.361772511154413">
        <ele>18.40234375</ele>
        <time>2013-09-01T03:33:41Z</time>
      </trkpt>
      <trkpt lat="14.215068994089961" lon="101.361490963026881">
        <ele>18.40234375</ele>
        <time>2013-09-01T03:33:47Z</time>
      </trkpt>
      <trkpt lat="14.214739752933383" lon="101.360863577574492">
        <ele>18.40234375</ele>
        <time>2013-09-01T03:34:02Z</time>
      </trkpt>
      <trkpt lat="14.214417468756437" lon="101.360071487724781">
        <ele>18.883056640625</ele>
        <time>2013-09-01T03:34:20Z</time>
      </trkpt>
      <trkpt lat="14.214305989444256" lon="101.359863867983222">
        <ele>18.40234375</ele>
        <time>2013-09-01T03:34:25Z</time>
      </trkpt>
      <trkpt lat="14.213686902076006" lon="101.358981756493449">
        <ele>18.40234375</ele>
        <time>2013-09-01T03:34:48Z</time>
      </trkpt>
      <trkpt lat="14.21359327621758" lon="101.358925765380263">
        <ele>18.40234375</ele>
        <time>2013-09-01T03:34:50Z</time>
      </trkpt>
      <trkpt lat="14.213532339781523" lon="101.358862984925508">
        <ele>17.9217529296875</ele>
        <time>2013-09-01T03:34:52Z</time>
      </trkpt>
      <trkpt lat="14.213089859113097" lon="101.358331991359591">
        <ele>18.883056640625</ele>
        <time>2013-09-01T03:35:07Z</time>
      </trkpt>
      <trkpt lat="14.212504969909787" lon="101.357814492657781">
        <ele>18.883056640625</ele>
        <time>2013-09-01T03:35:24Z</time>
      </trkpt>
      <trkpt lat="14.212354179471731" lon="101.357680801302195">
        <ele>18.883056640625</ele>
        <time>2013-09-01T03:35:28Z</time>
      </trkpt>
      <trkpt lat="14.212270276620984" lon="101.357623301446438">
        <ele>18.40234375</ele>
        <time>2013-09-01T03:35:30Z</time>
      </trkpt>
      <trkpt lat="14.211384141817689" lon="101.357378633692861">
        <ele>17.441162109375</ele>
        <time>2013-09-01T03:35:47Z</time>
      </trkpt>
      <trkpt lat="14.211329072713852" lon="101.357365977019072">
        <ele>17.441162109375</ele>
        <time>2013-09-01T03:35:48Z</time>
      </trkpt>
      <trkpt lat="14.2110675573349" lon="101.357423728331923">
        <ele>16.96044921875</ele>
        <time>2013-09-01T03:35:53Z</time>
      </trkpt>
      <trkpt lat="14.210182931274176" lon="101.357946507632732">
        <ele>16.96044921875</ele>
        <time>2013-09-01T03:36:14Z</time>
      </trkpt>
      <trkpt lat="14.209596030414104" lon="101.358316484838724">
        <ele>15.9990234375</ele>
        <time>2013-09-01T03:36:29Z</time>
      </trkpt>
      <trkpt lat="14.209419256076217" lon="101.358455121517181">
        <ele>16.479736328125</ele>
        <time>2013-09-01T03:36:34Z</time>
      </trkpt>
      <trkpt lat="14.208487439900637" lon="101.358529385179281">
        <ele>15.0377197265625</ele>
        <time>2013-09-01T03:36:56Z</time>
      </trkpt>
      <trkpt lat="14.208311587572098" lon="101.358473896980286">
        <ele>15.0377197265625</ele>
        <time>2013-09-01T03:37:00Z</time>
      </trkpt>
      <trkpt lat="14.208215698599815" lon="101.358461491763592">
        <ele>15.0377197265625</ele>
        <time>2013-09-01T03:37:02Z</time>
      </trkpt>
      <trkpt lat="14.20802928507328" lon="101.358517734333873">
        <ele>15.9990234375</ele>
        <time>2013-09-01T03:37:06Z</time>
      </trkpt>
      <trkpt lat="14.207806745544076" lon="101.358630387112498">
        <ele>15.9990234375</ele>
        <time>2013-09-01T03:37:11Z</time>
      </trkpt>
      <trkpt lat="14.20734372921288" lon="101.358873378485441">
        <ele>16.96044921875</ele>
        <time>2013-09-01T03:37:24Z</time>
      </trkpt>
      <trkpt lat="14.207274913787842" lon="101.358765671029687">
        <ele>16.96044921875</ele>
        <time>2013-09-01T03:37:28Z</time>
      </trkpt>
      <trkpt lat="14.207274746149778" lon="101.357888169586658">
        <ele>17.441162109375</ele>
        <time>2013-09-01T03:37:47Z</time>
      </trkpt>
      <trkpt lat="14.207263682037592" lon="101.357004716992378">
        <ele>17.441162109375</ele>
        <time>2013-09-01T03:38:06Z</time>
      </trkpt>
      <trkpt lat="14.207251612097025" lon="101.355983465909958">
        <ele>16.96044921875</ele>
        <time>2013-09-01T03:38:27Z</time>
      </trkpt>
      <trkpt lat="14.207232920452952" lon="101.354810921475291">
        <ele>17.9217529296875</ele>
        <time>2013-09-01T03:38:50Z</time>
      </trkpt>
      <trkpt lat="14.207260413095355" lon="101.35407792404294">
        <ele>19.8443603515625</ele>
        <time>2013-09-01T03:39:08Z</time>
      </trkpt>
      <trkpt lat="14.207267621532083" lon="101.353227077051997">
        <ele>21.286376953125</ele>
        <time>2013-09-01T03:39:29Z</time>
      </trkpt>
      <trkpt lat="14.207258317619562" lon="101.352216135710478">
        <ele>22.728271484375</ele>
        <time>2013-09-01T03:39:53Z</time>
      </trkpt>
      <trkpt lat="14.20722302980721" lon="101.351368138566613">
        <ele>24.1702880859375</ele>
        <time>2013-09-01T03:40:13Z</time>
      </trkpt>
      <trkpt lat="14.207083974033594" lon="101.350539587438107">
        <ele>21.7669677734375</ele>
        <time>2013-09-01T03:40:29Z</time>
      </trkpt>
      <trkpt lat="14.206838803365827" lon="101.349358661100268">
        <ele>19.36376953125</ele>
        <time>2013-09-01T03:40:48Z</time>
      </trkpt>
      <trkpt lat="14.206664627417922" lon="101.348300445824862">
        <ele>19.36376953125</ele>
        <time>2013-09-01T03:41:07Z</time>
      </trkpt>
      <trkpt lat="14.206653479486704" lon="101.348135909065604">
        <ele>19.8443603515625</ele>
        <time>2013-09-01T03:41:10Z</time>
      </trkpt>
      <trkpt lat="14.206498749554157" lon="101.347888894379139">
        <ele>20.8056640625</ele>
        <time>2013-09-01T03:41:16Z</time>
      </trkpt>
      <trkpt lat="14.206199180334806" lon="101.347605250775814">
        <ele>22.24755859375</ele>
        <time>2013-09-01T03:41:24Z</time>
      </trkpt>
      <trkpt lat="14.205813612788916" lon="101.34675188921392">
        <ele>22.24755859375</ele>
        <time>2013-09-01T03:41:41Z</time>
      </trkpt>
      <trkpt lat="14.205433325842023" lon="101.345695769414306">
        <ele>22.728271484375</ele>
        <time>2013-09-01T03:42:02Z</time>
      </trkpt>
      <trkpt lat="14.20510190539062" lon="101.344786752015352">
        <ele>24.6510009765625</ele>
        <time>2013-09-01T03:42:21Z</time>
      </trkpt>
      <trkpt lat="14.204828655347228" lon="101.3439657445997">
        <ele>26.5736083984375</ele>
        <time>2013-09-01T03:42:41Z</time>
      </trkpt>
      <trkpt lat="14.204681217670441" lon="101.343413796275854">
        <ele>26.5736083984375</ele>
        <time>2013-09-01T03:42:56Z</time>
      </trkpt>
      <trkpt lat="14.204529421404004" lon="101.342812813818455">
        <ele>27.534912109375</ele>
        <time>2013-09-01T03:43:15Z</time>
      </trkpt>
      <trkpt lat="14.204500000923872" lon="101.342788757756352">
        <ele>29.45751953125</ele>
        <time>2013-09-01T03:43:28Z</time>
      </trkpt>
      <trkpt lat="14.204487763345242" lon="101.342804012820125">
        <ele>29.9381103515625</ele>
        <time>2013-09-01T03:43:40Z</time>
      </trkpt>
      <trkpt lat="14.204477788880467" lon="101.342750368639827">
        <ele>31.8607177734375</ele>
        <time>2013-09-01T03:49:08Z</time>
      </trkpt>
      <trkpt lat="14.204430179670453" lon="101.342396065592766">
        <ele>30.8995361328125</ele>
        <time>2013-09-01T03:49:24Z</time>
      </trkpt>
      <trkpt lat="14.204229433089495" lon="101.341699529439211">
        <ele>29.45751953125</ele>
        <time>2013-09-01T03:49:41Z</time>
      </trkpt>
      <trkpt lat="14.203823916614056" lon="101.340724965557456">
        <ele>28.4962158203125</ele>
        <time>2013-09-01T03:50:00Z</time>
      </trkpt>
      <trkpt lat="14.203399876132607" lon="101.339564071968198">
        <ele>25.6123046875</ele>
        <time>2013-09-01T03:50:18Z</time>
      </trkpt>
      <trkpt lat="14.20297977514565" lon="101.338201174512506">
        <ele>22.24755859375</ele>
        <time>2013-09-01T03:50:37Z</time>
      </trkpt>
      <trkpt lat="14.202866200357676" lon="101.337907807901502">
        <ele>21.286376953125</ele>
        <time>2013-09-01T03:50:41Z</time>
      </trkpt>
      <trkpt lat="14.202048713341355" lon="101.336942883208394">
        <ele>19.36376953125</ele>
        <time>2013-09-01T03:50:58Z</time>
      </trkpt>
      <trkpt lat="14.201089236885309" lon="101.3359927944839">
        <ele>18.40234375</ele>
        <time>2013-09-01T03:51:19Z</time>
      </trkpt>
      <trkpt lat="14.200873402878642" lon="101.335784504190087">
        <ele>17.9217529296875</ele>
        <time>2013-09-01T03:51:25Z</time>
      </trkpt>
      <trkpt lat="14.200781285762787" lon="101.335840160027146">
        <ele>15.9990234375</ele>
        <time>2013-09-01T03:51:29Z</time>
      </trkpt>
      <trkpt lat="14.200486578047276" lon="101.336611630395055">
        <ele>12.6343994140625</ele>
        <time>2013-09-01T03:51:47Z</time>
      </trkpt>
      <trkpt lat="14.200308797881007" lon="101.337111108005047">
        <ele>12.15380859375</ele>
        <time>2013-09-01T03:51:59Z</time>
      </trkpt>
      <trkpt lat="14.199939407408237" lon="101.33768099360168">
        <ele>12.6343994140625</ele>
        <time>2013-09-01T03:52:15Z</time>
      </trkpt>
      <trkpt lat="14.199806302785873" lon="101.338148368522525">
        <ele>10.7117919921875</ele>
        <time>2013-09-01T03:52:28Z</time>
      </trkpt>
      <trkpt lat="14.199779983609915" lon="101.338213747367263">
        <ele>11.1925048828125</ele>
        <time>2013-09-01T03:52:30Z</time>
      </trkpt>
      <trkpt lat="14.199675461277366" lon="101.338267391547561">
        <ele>11.6732177734375</ele>
        <time>2013-09-01T03:52:34Z</time>
      </trkpt>
      <trkpt lat="14.199526347219944" lon="101.338293626904488">
        <ele>12.15380859375</ele>
        <time>2013-09-01T03:52:39Z</time>
      </trkpt>
      <trkpt lat="14.199466668069363" lon="101.338431760668755">
        <ele>12.6343994140625</ele>
        <time>2013-09-01T03:52:45Z</time>
      </trkpt>
      <trkpt lat="14.199467841535807" lon="101.338848005980253">
        <ele>12.15380859375</ele>
        <time>2013-09-01T03:53:01Z</time>
      </trkpt>
      <trkpt lat="14.199443701654673" lon="101.338873989880085">
        <ele>12.6343994140625</ele>
        <time>2013-09-01T03:53:03Z</time>
      </trkpt>
      <trkpt lat="14.199363151565194" lon="101.339011956006289">
        <ele>13.5958251953125</ele>
        <time>2013-09-01T03:53:14Z</time>
      </trkpt>
      <trkpt lat="14.199386956170201" lon="101.339167272672057">
        <ele>13.1151123046875</ele>
        <time>2013-09-01T03:53:28Z</time>
      </trkpt>
      <trkpt lat="14.199390057474375" lon="101.339225443080068">
        <ele>11.6732177734375</ele>
        <time>2013-09-01T03:53:36Z</time>
      </trkpt>
      <trkpt lat="14.199325013905764" lon="101.33928612805903">
        <ele>9.2698974609375</ele>
        <time>2013-09-01T03:53:48Z</time>
      </trkpt>
      <trkpt lat="14.199137175455689" lon="101.339281601831317">
        <ele>9.7506103515625</ele>
        <time>2013-09-01T03:54:03Z</time>
      </trkpt>
      <trkpt lat="14.198792176321149" lon="101.339286798611283">
        <ele>9.2698974609375</ele>
        <time>2013-09-01T03:54:19Z</time>
      </trkpt>
      <trkpt lat="14.198706764727831" lon="101.339276907965541">
        <ele>8.7891845703125</ele>
        <time>2013-09-01T03:54:22Z</time>
      </trkpt>
      <trkpt lat="14.198556644842029" lon="101.339401043951511">
        <ele>10.7117919921875</ele>
        <time>2013-09-01T03:54:32Z</time>
      </trkpt>
      <trkpt lat="14.198262272402644" lon="101.339331893250346">
        <ele>11.6732177734375</ele>
        <time>2013-09-01T03:54:53Z</time>
      </trkpt>
      <trkpt lat="14.198143081739545" lon="101.339200716465712">
        <ele>12.6343994140625</ele>
        <time>2013-09-01T03:55:06Z</time>
      </trkpt>
      <trkpt lat="14.197862204164267" lon="101.339069874957204">
        <ele>16.479736328125</ele>
        <time>2013-09-01T03:55:25Z</time>
      </trkpt>
      <trkpt lat="14.197566574439406" lon="101.338998461142182">
        <ele>16.479736328125</ele>
        <time>2013-09-01T03:55:40Z</time>
      </trkpt>
      <trkpt lat="14.197251833975315" lon="101.338901650160551">
        <ele>19.36376953125</ele>
        <time>2013-09-01T03:55:58Z</time>
      </trkpt>
      <trkpt lat="14.197187796235085" lon="101.338864266872406">
        <ele>20.324951171875</ele>
        <time>2013-09-01T03:56:13Z</time>
      </trkpt>
      <trkpt lat="14.196853274479508" lon="101.338742561638355">
        <ele>19.36376953125</ele>
        <time>2013-09-01T03:56:32Z</time>
      </trkpt>
      <trkpt lat="14.196543227881193" lon="101.338890418410301">
        <ele>20.324951171875</ele>
        <time>2013-09-01T03:56:47Z</time>
      </trkpt>
      <trkpt lat="14.195762788876891" lon="101.339964224025607">
        <ele>19.8443603515625</ele>
        <time>2013-09-01T03:57:26Z</time>
      </trkpt>
      <trkpt lat="14.195476463064551" lon="101.340672913938761">
        <ele>22.728271484375</ele>
        <time>2013-09-01T03:57:46Z</time>
      </trkpt>
      <trkpt lat="14.195270603522658" lon="101.340984385460615">
        <ele>21.7669677734375</ele>
        <time>2013-09-01T03:58:01Z</time>
      </trkpt>
      <trkpt lat="14.195130877196789" lon="101.341465003788471">
        <ele>21.7669677734375</ele>
        <time>2013-09-01T03:58:20Z</time>
      </trkpt>
      <trkpt lat="14.19507279060781" lon="101.341627277433872">
        <ele>21.7669677734375</ele>
        <time>2013-09-01T03:58:25Z</time>
      </trkpt>
      <trkpt lat="14.194938344880939" lon="101.341796340420842">
        <ele>21.286376953125</ele>
        <time>2013-09-01T03:58:30Z</time>
      </trkpt>
      <trkpt lat="14.194922083988786" lon="101.342043103650212">
        <ele>20.324951171875</ele>
        <time>2013-09-01T03:58:35Z</time>
      </trkpt>
      <trkpt lat="14.194626621901989" lon="101.342764031141996">
        <ele>17.441162109375</ele>
        <time>2013-09-01T03:58:54Z</time>
      </trkpt>
      <trkpt lat="14.194178441539407" lon="101.343780672177672">
        <ele>17.441162109375</ele>
        <time>2013-09-01T03:59:19Z</time>
      </trkpt>
      <trkpt lat="14.193935701623559" lon="101.344027519226074">
        <ele>17.9217529296875</ele>
        <time>2013-09-01T03:59:24Z</time>
      </trkpt>
      <trkpt lat="14.193170014768839" lon="101.344841737300158">
        <ele>14.5570068359375</ele>
        <time>2013-09-01T03:59:45Z</time>
      </trkpt>
      <trkpt lat="14.193124501034617" lon="101.344947097823024">
        <ele>14.5570068359375</ele>
        <time>2013-09-01T03:59:47Z</time>
      </trkpt>
      <trkpt lat="14.192621922120452" lon="101.345473900437355">
        <ele>14.5570068359375</ele>
        <time>2013-09-01T04:00:01Z</time>
      </trkpt>
      <trkpt lat="14.191750204190612" lon="101.345982346683741">
        <ele>15.9990234375</ele>
        <time>2013-09-01T04:00:19Z</time>
      </trkpt>
      <trkpt lat="14.190730042755604" lon="101.346593303605914">
        <ele>13.1151123046875</ele>
        <time>2013-09-01T04:00:41Z</time>
      </trkpt>
      <trkpt lat="14.19016744941473" lon="101.346915336325765">
        <ele>12.6343994140625</ele>
        <time>2013-09-01T04:00:53Z</time>
      </trkpt>
      <trkpt lat="14.189636707305908" lon="101.34721465408802">
        <ele>12.15380859375</ele>
        <time>2013-09-01T04:01:04Z</time>
      </trkpt>
      <trkpt lat="14.188583521172404" lon="101.34780541062355">
        <ele>13.1151123046875</ele>
        <time>2013-09-01T04:01:26Z</time>
      </trkpt>
      <trkpt lat="14.187540980055928" lon="101.348407985642552">
        <ele>14.076416015625</ele>
        <time>2013-09-01T04:01:49Z</time>
      </trkpt>
      <trkpt lat="14.186535403132439" lon="101.348988097161055">
        <ele>14.076416015625</ele>
        <time>2013-09-01T04:02:11Z</time>
      </trkpt>
      <trkpt lat="14.18562076985836" lon="101.349520096555352">
        <ele>15.0377197265625</ele>
        <time>2013-09-01T04:02:31Z</time>
      </trkpt>
      <trkpt lat="14.184543779119849" lon="101.350143626332283">
        <ele>15.5184326171875</ele>
        <time>2013-09-01T04:02:54Z</time>
      </trkpt>
      <trkpt lat="14.183473577722907" lon="101.350777549669147">
        <ele>17.441162109375</ele>
        <time>2013-09-01T04:03:17Z</time>
      </trkpt>
      <trkpt lat="14.183430662378669" lon="101.350807808339596">
        <ele>17.441162109375</ele>
        <time>2013-09-01T04:03:18Z</time>
      </trkpt>
      <trkpt lat="14.183000670745969" lon="101.351110730320215">
        <ele>16.96044921875</ele>
        <time>2013-09-01T04:03:28Z</time>
      </trkpt>
      <trkpt lat="14.182225177064538" lon="101.351182982325554">
        <ele>16.479736328125</ele>
        <time>2013-09-01T04:03:43Z</time>
      </trkpt>
      <trkpt lat="14.181796107441187" lon="101.350904116407037">
        <ele>17.9217529296875</ele>
        <time>2013-09-01T04:03:54Z</time>
      </trkpt>
      <trkpt lat="14.181685550138354" lon="101.35095801204443">
        <ele>17.441162109375</ele>
        <time>2013-09-01T04:03:58Z</time>
      </trkpt>
      <trkpt lat="14.181408360600471" lon="101.351186167448759">
        <ele>16.96044921875</ele>
        <time>2013-09-01T04:04:06Z</time>
      </trkpt>
      <trkpt lat="14.181149024516344" lon="101.351335113868117">
        <ele>16.96044921875</ele>
        <time>2013-09-01T04:04:12Z</time>
      </trkpt>
      <trkpt lat="14.180730851367116" lon="101.351722273975611">
        <ele>17.441162109375</ele>
        <time>2013-09-01T04:04:24Z</time>
      </trkpt>
      <trkpt lat="14.180666143074632" lon="101.351992422714829">
        <ele>17.9217529296875</ele>
        <time>2013-09-01T04:04:31Z</time>
      </trkpt>
      <trkpt lat="14.18069439008832" lon="101.352075906470418">
        <ele>18.40234375</ele>
        <time>2013-09-01T04:04:33Z</time>
      </trkpt>
      <trkpt lat="14.181075347587466" lon="101.352740004658699">
        <ele>18.40234375</ele>
        <time>2013-09-01T04:04:48Z</time>
      </trkpt>
      <trkpt lat="14.181793006137013" lon="101.353455651551485">
        <ele>17.441162109375</ele>
        <time>2013-09-01T04:05:06Z</time>
      </trkpt>
      <trkpt lat="14.182611163705587" lon="101.353925205767155">
        <ele>16.96044921875</ele>
        <time>2013-09-01T04:05:23Z</time>
      </trkpt>
      <trkpt lat="14.183329325169325" lon="101.354423006996512">
        <ele>16.479736328125</ele>
        <time>2013-09-01T04:05:40Z</time>
      </trkpt>
      <trkpt lat="14.183600563555956" lon="101.35467991232872">
        <ele>16.479736328125</ele>
        <time>2013-09-01T04:05:47Z</time>
      </trkpt>
      <trkpt lat="14.184597004204988" lon="101.355182072147727">
        <ele>18.40234375</ele>
        <time>2013-09-01T04:06:08Z</time>
      </trkpt>
      <trkpt lat="14.185626804828644" lon="101.355664283037186">
        <ele>17.9217529296875</ele>
        <time>2013-09-01T04:06:29Z</time>
      </trkpt>
      <trkpt lat="14.186844527721405" lon="101.356295524165034">
        <ele>16.96044921875</ele>
        <time>2013-09-01T04:06:54Z</time>
      </trkpt>
      <trkpt lat="14.187859743833542" lon="101.356895081698895">
        <ele>15.9990234375</ele>
        <time>2013-09-01T04:07:16Z</time>
      </trkpt>
      <trkpt lat="14.188568349927664" lon="101.357572423294187">
        <ele>16.479736328125</ele>
        <time>2013-09-01T04:07:35Z</time>
      </trkpt>
      <trkpt lat="14.189540566876531" lon="101.358546148985624">
        <ele>16.479736328125</ele>
        <time>2013-09-01T04:08:02Z</time>
      </trkpt>
      <trkpt lat="14.190343469381332" lon="101.359341675415635">
        <ele>15.5184326171875</ele>
        <time>2013-09-01T04:08:24Z</time>
      </trkpt>
      <trkpt lat="14.191148467361927" lon="101.360142650082707">
        <ele>15.9990234375</ele>
        <time>2013-09-01T04:08:45Z</time>
      </trkpt>
      <trkpt lat="14.191830419003963" lon="101.360830804333091">
        <ele>15.9990234375</ele>
        <time>2013-09-01T04:09:03Z</time>
      </trkpt>
      <trkpt lat="14.192265355959535" lon="101.361274877563119">
        <ele>17.441162109375</ele>
        <time>2013-09-01T04:09:15Z</time>
      </trkpt>
      <trkpt lat="14.193132715299726" lon="101.361799668520689">
        <ele>15.9990234375</ele>
        <time>2013-09-01T04:09:35Z</time>
      </trkpt>
      <trkpt lat="14.193249726668" lon="101.361861024051905">
        <ele>15.5184326171875</ele>
        <time>2013-09-01T04:09:38Z</time>
      </trkpt>
      <trkpt lat="14.19324042275548" lon="101.362008964642882">
        <ele>15.9990234375</ele>
        <time>2013-09-01T04:09:42Z</time>
      </trkpt>
      <trkpt lat="14.193170936778188" lon="101.362114576622844">
        <ele>16.479736328125</ele>
        <time>2013-09-01T04:09:45Z</time>
      </trkpt>
      <trkpt lat="14.192901458591223" lon="101.362373828887939">
        <ele>16.479736328125</ele>
        <time>2013-09-01T04:09:53Z</time>
      </trkpt>
      <trkpt lat="14.192641535773873" lon="101.362920999526978">
        <ele>16.479736328125</ele>
        <time>2013-09-01T04:10:11Z</time>
      </trkpt>
      <trkpt lat="14.192813951522112" lon="101.363238925114274">
        <ele>15.9990234375</ele>
        <time>2013-09-01T04:10:21Z</time>
      </trkpt>
      <trkpt lat="14.192699287086725" lon="101.363504463806748">
        <ele>16.96044921875</ele>
        <time>2013-09-01T04:10:29Z</time>
      </trkpt>
      <trkpt lat="14.192496277391911" lon="101.363961277529597">
        <ele>16.96044921875</ele>
        <time>2013-09-01T04:10:40Z</time>
      </trkpt>
      <trkpt lat="14.192638099193573" lon="101.364081390202045">
        <ele>18.40234375</ele>
        <time>2013-09-01T04:10:47Z</time>
      </trkpt>
      <trkpt lat="14.193288451060653" lon="101.364011149853468">
        <ele>18.40234375</ele>
        <time>2013-09-01T04:11:03Z</time>
      </trkpt>
      <trkpt lat="14.193608723580837" lon="101.36402690783143">
        <ele>18.883056640625</ele>
        <time>2013-09-01T04:11:11Z</time>
      </trkpt>
      <trkpt lat="14.193710228428245" lon="101.364208543673158">
        <ele>19.36376953125</ele>
        <time>2013-09-01T04:11:16Z</time>
      </trkpt>
      <trkpt lat="14.193722466006875" lon="101.364440638571978">
        <ele>19.36376953125</ele>
        <time>2013-09-01T04:11:21Z</time>
      </trkpt>
      <trkpt lat="14.193816343322396" lon="101.364577682688832">
        <ele>19.36376953125</ele>
        <time>2013-09-01T04:11:25Z</time>
      </trkpt>
      <trkpt lat="14.194057574495673" lon="101.364727299660444">
        <ele>20.8056640625</ele>
        <time>2013-09-01T04:11:31Z</time>
      </trkpt>
      <trkpt lat="14.19416637159884" lon="101.364882029592991">
        <ele>20.8056640625</ele>
        <time>2013-09-01T04:11:35Z</time>
      </trkpt>
      <trkpt lat="14.194376673549414" lon="101.365780988708138">
        <ele>20.8056640625</ele>
        <time>2013-09-01T04:11:54Z</time>
      </trkpt>
      <trkpt lat="14.194412715733051" lon="101.365919206291437">
        <ele>20.324951171875</ele>
        <time>2013-09-01T04:11:57Z</time>
      </trkpt>
      <trkpt lat="14.194545904174447" lon="101.366204777732491">
        <ele>19.8443603515625</ele>
        <time>2013-09-01T04:12:04Z</time>
      </trkpt>
      <trkpt lat="14.194552022963762" lon="101.366289099678397">
        <ele>19.8443603515625</ele>
        <time>2013-09-01T04:12:06Z</time>
      </trkpt>
      <trkpt lat="14.19462326914072" lon="101.36655799113214">
        <ele>20.324951171875</ele>
        <time>2013-09-01T04:12:12Z</time>
      </trkpt>
      <trkpt lat="14.194711530581117" lon="101.366670476272702">
        <ele>20.324951171875</ele>
        <time>2013-09-01T04:12:15Z</time>
      </trkpt>
      <trkpt lat="14.194759894162416" lon="101.366990748792887">
        <ele>19.8443603515625</ele>
        <time>2013-09-01T04:12:22Z</time>
      </trkpt>
      <trkpt lat="14.194710357114673" lon="101.367122260853648">
        <ele>19.36376953125</ele>
        <time>2013-09-01T04:12:25Z</time>
      </trkpt>
      <trkpt lat="14.194672806188464" lon="101.367400707677007">
        <ele>19.36376953125</ele>
        <time>2013-09-01T04:12:31Z</time>
      </trkpt>
      <trkpt lat="14.194684876129031" lon="101.367748891934752">
        <ele>18.883056640625</ele>
        <time>2013-09-01T04:12:39Z</time>
      </trkpt>
      <trkpt lat="14.194547580555081" lon="101.36792030185461">
        <ele>18.883056640625</ele>
        <time>2013-09-01T04:12:44Z</time>
      </trkpt>
      <trkpt lat="14.19447273015976" lon="101.367965061217546">
        <ele>18.883056640625</ele>
        <time>2013-09-01T04:12:46Z</time>
      </trkpt>
      <trkpt lat="14.19430467300117" lon="101.368225906044245">
        <ele>18.883056640625</ele>
        <time>2013-09-01T04:12:54Z</time>
      </trkpt>
      <trkpt lat="14.194243149831891" lon="101.368568055331707">
        <ele>17.441162109375</ele>
        <time>2013-09-01T04:13:02Z</time>
      </trkpt>
      <trkpt lat="14.194115828722715" lon="101.369198625907302">
        <ele>18.883056640625</ele>
        <time>2013-09-01T04:13:18Z</time>
      </trkpt>
      <trkpt lat="14.194182464852929" lon="101.369351344183087">
        <ele>18.40234375</ele>
        <time>2013-09-01T04:13:22Z</time>
      </trkpt>
      <trkpt lat="14.194550011307001" lon="101.369826095178723">
        <ele>19.8443603515625</ele>
        <time>2013-09-01T04:13:36Z</time>
      </trkpt>
      <trkpt lat="14.194578342139721" lon="101.370057268068194">
        <ele>19.8443603515625</ele>
        <time>2013-09-01T04:13:42Z</time>
      </trkpt>
      <trkpt lat="14.194740364328027" lon="101.370379384607077">
        <ele>20.8056640625</ele>
        <time>2013-09-01T04:13:50Z</time>
      </trkpt>
      <trkpt lat="14.194857375696301" lon="101.370496647432446">
        <ele>20.8056640625</ele>
        <time>2013-09-01T04:13:54Z</time>
      </trkpt>
      <trkpt lat="14.19547445140779" lon="101.370510309934616">
        <ele>19.8443603515625</ele>
        <time>2013-09-01T04:14:09Z</time>
      </trkpt>
      <trkpt lat="14.19528434984386" lon="101.371048260480165">
        <ele>22.24755859375</ele>
        <time>2013-09-01T04:14:22Z</time>
      </trkpt>
      <trkpt lat="14.195115705952048" lon="101.371324611827731">
        <ele>21.286376953125</ele>
        <time>2013-09-01T04:14:29Z</time>
      </trkpt>
      <trkpt lat="14.195255683735013" lon="101.371507588773966">
        <ele>19.8443603515625</ele>
        <time>2013-09-01T04:14:37Z</time>
      </trkpt>
      <trkpt lat="14.195295162498951" lon="101.371508929878473">
        <ele>19.36376953125</ele>
        <time>2013-09-01T04:14:38Z</time>
      </trkpt>
      <trkpt lat="14.195885080844164" lon="101.371462661772966">
        <ele>19.8443603515625</ele>
        <time>2013-09-01T04:14:52Z</time>
      </trkpt>
      <trkpt lat="14.196373242884874" lon="101.371649242937565">
        <ele>19.8443603515625</ele>
        <time>2013-09-01T04:15:03Z</time>
      </trkpt>
      <trkpt lat="14.19656946323812" lon="101.371709425002337">
        <ele>19.8443603515625</ele>
        <time>2013-09-01T04:15:10Z</time>
      </trkpt>
      <trkpt lat="14.196823518723249" lon="101.371620493009686">
        <ele>19.36376953125</ele>
        <time>2013-09-01T04:15:17Z</time>
      </trkpt>
      <trkpt lat="14.196989228948951" lon="101.371576655656099">
        <ele>19.36376953125</ele>
        <time>2013-09-01T04:15:21Z</time>
      </trkpt>
      <trkpt lat="14.197350153699517" lon="101.371243726462126">
        <ele>19.8443603515625</ele>
        <time>2013-09-01T04:15:35Z</time>
      </trkpt>
      <trkpt lat="14.197472361847758" lon="101.371212881058455">
        <ele>19.36376953125</ele>
        <time>2013-09-01T04:15:41Z</time>
      </trkpt>
      <trkpt lat="14.197534052655101" lon="101.371319834142923">
        <ele>19.36376953125</ele>
        <time>2013-09-01T04:15:45Z</time>
      </trkpt>
      <trkpt lat="14.197681741788983" lon="101.371842613443732">
        <ele>21.7669677734375</ele>
        <time>2013-09-01T04:15:58Z</time>
      </trkpt>
      <trkpt lat="14.197737984359264" lon="101.37196222320199">
        <ele>22.24755859375</ele>
        <time>2013-09-01T04:16:01Z</time>
      </trkpt>
      <trkpt lat="14.197975443676114" lon="101.3721913844347">
        <ele>23.208984375</ele>
        <time>2013-09-01T04:16:08Z</time>
      </trkpt>
      <trkpt lat="14.198105446994305" lon="101.372259948402643">
        <ele>23.208984375</ele>
        <time>2013-09-01T04:16:11Z</time>
      </trkpt>
      <trkpt lat="14.198244670405984" lon="101.372310575097799">
        <ele>23.208984375</ele>
        <time>2013-09-01T04:16:14Z</time>
      </trkpt>
      <trkpt lat="14.198380373418331" lon="101.372378971427679">
        <ele>23.208984375</ele>
        <time>2013-09-01T04:16:17Z</time>
      </trkpt>
      <trkpt lat="14.198636272922158" lon="101.372468154877424">
        <ele>22.728271484375</ele>
        <time>2013-09-01T04:16:22Z</time>
      </trkpt>
      <trkpt lat="14.198846826329827" lon="101.372500006109476">
        <ele>22.728271484375</ele>
        <time>2013-09-01T04:16:26Z</time>
      </trkpt>
      <trkpt lat="14.199136337265372" lon="101.372710559517145">
        <ele>22.728271484375</ele>
        <time>2013-09-01T04:16:33Z</time>
      </trkpt>
      <trkpt lat="14.199793227016926" lon="101.373670287430286">
        <ele>21.286376953125</ele>
        <time>2013-09-01T04:16:56Z</time>
      </trkpt>
      <trkpt lat="14.200430922210217" lon="101.374626746401191">
        <ele>19.8443603515625</ele>
        <time>2013-09-01T04:17:18Z</time>
      </trkpt>
      <trkpt lat="14.20112737454474" lon="101.375646321102977">
        <ele>18.40234375</ele>
        <time>2013-09-01T04:17:41Z</time>
      </trkpt>
      <trkpt lat="14.201817540451884" lon="101.376727502793074">
        <ele>17.9217529296875</ele>
        <time>2013-09-01T04:18:04Z</time>
      </trkpt>
      <trkpt lat="14.202493960037827" lon="101.377797285094857">
        <ele>17.441162109375</ele>
        <time>2013-09-01T04:18:26Z</time>
      </trkpt>
      <trkpt lat="14.203160908073187" lon="101.378836389631033">
        <ele>17.9217529296875</ele>
        <time>2013-09-01T04:18:48Z</time>
      </trkpt>
      <trkpt lat="14.203831879422069" lon="101.379900220781565">
        <ele>18.40234375</ele>
        <time>2013-09-01T04:19:11Z</time>
      </trkpt>
      <trkpt lat="14.204490361735225" lon="101.380937229841948">
        <ele>18.883056640625</ele>
        <time>2013-09-01T04:19:34Z</time>
      </trkpt>
      <trkpt lat="14.205071479082108" lon="101.381853120401502">
        <ele>18.883056640625</ele>
        <time>2013-09-01T04:19:54Z</time>
      </trkpt>
      <trkpt lat="14.20580162666738" lon="101.383004039525986">
        <ele>18.883056640625</ele>
        <time>2013-09-01T04:20:18Z</time>
      </trkpt>
      <trkpt lat="14.206455331295729" lon="101.384113887324929">
        <ele>21.286376953125</ele>
        <time>2013-09-01T04:20:42Z</time>
      </trkpt>
      <trkpt lat="14.206676529720426" lon="101.384472884237766">
        <ele>22.728271484375</ele>
        <time>2013-09-01T04:20:51Z</time>
      </trkpt>
      <trkpt lat="14.207210708409548" lon="101.38539950363338">
        <ele>25.1317138671875</ele>
        <time>2013-09-01T04:21:14Z</time>
      </trkpt>
      <trkpt lat="14.20744146220386" lon="101.385975843295455">
        <ele>27.534912109375</ele>
        <time>2013-09-01T04:21:31Z</time>
      </trkpt>
      <trkpt lat="14.207609938457608" lon="101.386526869609952">
        <ele>29.45751953125</ele>
        <time>2013-09-01T04:21:50Z</time>
      </trkpt>
      <trkpt lat="14.207805236801505" lon="101.387012265622616">
        <ele>31.8607177734375</ele>
        <time>2013-09-01T04:22:08Z</time>
      </trkpt>
      <trkpt lat="14.208028865978122" lon="101.387397581711411">
        <ele>31.8607177734375</ele>
        <time>2013-09-01T04:22:21Z</time>
      </trkpt>
      <trkpt lat="14.208495067432523" lon="101.387596735730767">
        <ele>32.341552734375</ele>
        <time>2013-09-01T04:22:33Z</time>
      </trkpt>
      <trkpt lat="14.208623059093952" lon="101.387705616652966">
        <ele>31.8607177734375</ele>
        <time>2013-09-01T04:22:37Z</time>
      </trkpt>
      <trkpt lat="14.208803437650204" lon="101.387932514771819">
        <ele>32.822265625</ele>
        <time>2013-09-01T04:22:44Z</time>
      </trkpt>
      <trkpt lat="14.209333509206772" lon="101.388242309913039">
        <ele>34.26416015625</ele>
        <time>2013-09-01T04:22:59Z</time>
      </trkpt>
      <trkpt lat="14.209825694561005" lon="101.388557637110353">
        <ele>33.3028564453125</ele>
        <time>2013-09-01T04:23:13Z</time>
      </trkpt>
      <trkpt lat="14.210551986470819" lon="101.388988802209496">
        <ele>29.9381103515625</ele>
        <time>2013-09-01T04:23:31Z</time>
      </trkpt>
      <trkpt lat="14.211185071617365" lon="101.389637729153037">
        <ele>32.822265625</ele>
        <time>2013-09-01T04:23:51Z</time>
      </trkpt>
      <trkpt lat="14.211737439036369" lon="101.390054225921631">
        <ele>34.26416015625</ele>
        <time>2013-09-01T04:24:09Z</time>
      </trkpt>
      <trkpt lat="14.212458115071058" lon="101.390640707686543">
        <ele>33.3028564453125</ele>
        <time>2013-09-01T04:24:31Z</time>
      </trkpt>
      <trkpt lat="14.213086757808924" lon="101.391150997951627">
        <ele>35.7060546875</ele>
        <time>2013-09-01T04:24:51Z</time>
      </trkpt>
      <trkpt lat="14.213180551305413" lon="101.391246048733592">
        <ele>35.7060546875</ele>
        <time>2013-09-01T04:24:55Z</time>
      </trkpt>
      <trkpt lat="14.213388422504067" lon="101.391460541635752">
        <ele>34.26416015625</ele>
        <time>2013-09-01T04:25:02Z</time>
      </trkpt>
      <trkpt lat="14.213496800512075" lon="101.391508150845766">
        <ele>34.26416015625</ele>
        <time>2013-09-01T04:25:04Z</time>
      </trkpt>
      <trkpt lat="14.213846912607551" lon="101.391498260200024">
        <ele>34.26416015625</ele>
        <time>2013-09-01T04:25:09Z</time>
      </trkpt>
      <trkpt lat="14.214693903923035" lon="101.391173964366317">
        <ele>31.380126953125</ele>
        <time>2013-09-01T04:25:20Z</time>
      </trkpt>
      <trkpt lat="14.215368730947375" lon="101.390736764296889">
        <ele>28.0155029296875</ele>
        <time>2013-09-01T04:25:30Z</time>
      </trkpt>
      <trkpt lat="14.215876255184412" lon="101.390792336314917">
        <ele>27.534912109375</ele>
        <time>2013-09-01T04:25:38Z</time>
      </trkpt>
      <trkpt lat="14.216652503237128" lon="101.39120489358902">
        <ele>26.5736083984375</ele>
        <time>2013-09-01T04:25:56Z</time>
      </trkpt>
      <trkpt lat="14.2174207046628" lon="101.391532374545932">
        <ele>23.208984375</ele>
        <time>2013-09-01T04:26:15Z</time>
      </trkpt>
      <trkpt lat="14.217676352709532" lon="101.391584929078817">
        <ele>23.6895751953125</ele>
        <time>2013-09-01T04:26:21Z</time>
      </trkpt>
      <trkpt lat="14.217876009643078" lon="101.391825741156936">
        <ele>23.6895751953125</ele>
        <time>2013-09-01T04:26:31Z</time>
      </trkpt>
      <trkpt lat="14.217904843389988" lon="101.39244994148612">
        <ele>25.1317138671875</ele>
        <time>2013-09-01T04:26:46Z</time>
      </trkpt>
      <trkpt lat="14.217957397922873" lon="101.392964590340853">
        <ele>24.6510009765625</ele>
        <time>2013-09-01T04:26:56Z</time>
      </trkpt>
      <trkpt lat="14.218013053759933" lon="101.393113704398274">
        <ele>24.6510009765625</ele>
        <time>2013-09-01T04:26:59Z</time>
      </trkpt>
      <trkpt lat="14.218219248577952" lon="101.39352492056787">
        <ele>25.1317138671875</ele>
        <time>2013-09-01T04:27:09Z</time>
      </trkpt>
      <trkpt lat="14.218677738681436" lon="101.393877379596233">
        <ele>25.1317138671875</ele>
        <time>2013-09-01T04:27:21Z</time>
      </trkpt>
      <trkpt lat="14.219060037285089" lon="101.393975783139467">
        <ele>26.0928955078125</ele>
        <time>2013-09-01T04:27:29Z</time>
      </trkpt>
      <trkpt lat="14.219799237325788" lon="101.393964802846313">
        <ele>26.0928955078125</ele>
        <time>2013-09-01T04:27:44Z</time>
      </trkpt>
      <trkpt lat="14.220049353316426" lon="101.394047867506742">
        <ele>26.0928955078125</ele>
        <time>2013-09-01T04:27:51Z</time>
      </trkpt>
      <trkpt lat="14.220062009990215" lon="101.394174015149474">
        <ele>26.5736083984375</ele>
        <time>2013-09-01T04:27:55Z</time>
      </trkpt>
      <trkpt lat="14.220036529004574" lon="101.394661003723741">
        <ele>25.6123046875</ele>
        <time>2013-09-01T04:28:06Z</time>
      </trkpt>
      <trkpt lat="14.219919685274363" lon="101.394818667322397">
        <ele>25.6123046875</ele>
        <time>2013-09-01T04:28:10Z</time>
      </trkpt>
      <trkpt lat="14.219533195719123" lon="101.395185710862279">
        <ele>25.6123046875</ele>
        <time>2013-09-01T04:28:21Z</time>
      </trkpt>
      <trkpt lat="14.219338400289416" lon="101.39603840187192">
        <ele>26.5736083984375</ele>
        <time>2013-09-01T04:28:40Z</time>
      </trkpt>
      <trkpt lat="14.219180317595601" lon="101.3965954631567">
        <ele>28.0155029296875</ele>
        <time>2013-09-01T04:28:56Z</time>
      </trkpt>
      <trkpt lat="14.218946881592274" lon="101.397333238273859">
        <ele>26.5736083984375</ele>
        <time>2013-09-01T04:29:18Z</time>
      </trkpt>
      <trkpt lat="14.219070933759212" lon="101.397531554102898">
        <ele>28.9769287109375</ele>
        <time>2013-09-01T04:29:31Z</time>
      </trkpt>
      <trkpt lat="14.219397157430649" lon="101.397852832451463">
        <ele>29.9381103515625</ele>
        <time>2013-09-01T04:29:47Z</time>
      </trkpt>
      <trkpt lat="14.219744084402919" lon="101.39815273694694">
        <ele>35.2254638671875</ele>
        <time>2013-09-01T04:30:07Z</time>
      </trkpt>
      <trkpt lat="14.220111798495054" lon="101.398440236225724">
        <ele>36.186767578125</ele>
        <time>2013-09-01T04:30:22Z</time>
      </trkpt>
      <trkpt lat="14.220162592828274" lon="101.398660596460104">
        <ele>37.1480712890625</ele>
        <time>2013-09-01T04:30:27Z</time>
      </trkpt>
      <trkpt lat="14.220149433240294" lon="101.399459475651383">
        <ele>34.26416015625</ele>
        <time>2013-09-01T04:30:41Z</time>
      </trkpt>
      <trkpt lat="14.220510022714734" lon="101.400452731177211">
        <ele>34.744873046875</ele>
        <time>2013-09-01T04:31:00Z</time>
      </trkpt>
      <trkpt lat="14.220852088183165" lon="101.401478257030249">
        <ele>33.783447265625</ele>
        <time>2013-09-01T04:31:19Z</time>
      </trkpt>
      <trkpt lat="14.220867091789842" lon="101.401533661410213">
        <ele>34.26416015625</ele>
        <time>2013-09-01T04:31:20Z</time>
      </trkpt>
      <trkpt lat="14.220908917486668" lon="101.401642123237252">
        <ele>33.783447265625</ele>
        <time>2013-09-01T04:31:22Z</time>
      </trkpt>
      <trkpt lat="14.220962142571807" lon="101.401846557855606">
        <ele>34.26416015625</ele>
        <time>2013-09-01T04:31:26Z</time>
      </trkpt>
      <trkpt lat="14.220932386815548" lon="101.402113605290651">
        <ele>33.783447265625</ele>
        <time>2013-09-01T04:31:31Z</time>
      </trkpt>
      <trkpt lat="14.220884358510375" lon="101.402266323566437">
        <ele>33.783447265625</ele>
        <time>2013-09-01T04:31:34Z</time>
      </trkpt>
      <trkpt lat="14.22092174179852" lon="101.402525492012501">
        <ele>33.3028564453125</ele>
        <time>2013-09-01T04:31:39Z</time>
      </trkpt>
      <trkpt lat="14.221366653218865" lon="101.403388492763042">
        <ele>35.2254638671875</ele>
        <time>2013-09-01T04:31:59Z</time>
      </trkpt>
      <trkpt lat="14.221747359260917" lon="101.404136829078197">
        <ele>38.109375</ele>
        <time>2013-09-01T04:32:17Z</time>
      </trkpt>
      <trkpt lat="14.222056064754725" lon="101.404783325269818">
        <ele>39.55126953125</ele>
        <time>2013-09-01T04:32:37Z</time>
      </trkpt>
      <trkpt lat="14.222072912380099" lon="101.405329909175634">
        <ele>40.5128173828125</ele>
        <time>2013-09-01T04:32:52Z</time>
      </trkpt>
      <trkpt lat="14.221992110833526" lon="101.405632495880127">
        <ele>40.5128173828125</ele>
        <time>2013-09-01T04:33:01Z</time>
      </trkpt>
      <trkpt lat="14.221822042018175" lon="101.40565856359899">
        <ele>40.0321044921875</ele>
        <time>2013-09-01T04:33:05Z</time>
      </trkpt>
      <trkpt lat="14.220676654949784" lon="101.405694773420691">
        <ele>37.628662109375</ele>
        <time>2013-09-01T04:33:26Z</time>
      </trkpt>
      <trkpt lat="14.220250518992543" lon="101.405709777027369">
        <ele>36.186767578125</ele>
        <time>2013-09-01T04:33:33Z</time>
      </trkpt>
      <trkpt lat="14.220083383843303" lon="101.40571522526443">
        <ele>37.628662109375</ele>
        <time>2013-09-01T04:33:36Z</time>
      </trkpt>
      <trkpt lat="14.219208816066384" lon="101.405726121738553">
        <ele>36.186767578125</ele>
        <time>2013-09-01T04:33:51Z</time>
      </trkpt>
      <trkpt lat="14.218554608523846" lon="101.405688989907503">
        <ele>36.186767578125</ele>
        <time>2013-09-01T04:34:03Z</time>
      </trkpt>
      <trkpt lat="14.218378169462085" lon="101.405900213867426">
        <ele>36.66748046875</ele>
        <time>2013-09-01T04:34:10Z</time>
      </trkpt>
      <trkpt lat="14.218129562214017" lon="101.405955282971263">
        <ele>36.66748046875</ele>
        <time>2013-09-01T04:34:16Z</time>
      </trkpt>
      <trkpt lat="14.217979945242405" lon="101.405944135040045">
        <ele>36.66748046875</ele>
        <time>2013-09-01T04:34:19Z</time>
      </trkpt>
      <trkpt lat="14.217554731294513" lon="101.406215708702803">
        <ele>36.66748046875</ele>
        <time>2013-09-01T04:34:30Z</time>
      </trkpt>
      <trkpt lat="14.217539895325899" lon="101.406256696209311">
        <ele>36.66748046875</ele>
        <time>2013-09-01T04:34:31Z</time>
      </trkpt>
      <trkpt lat="14.217512486502528" lon="101.406339174136519">
        <ele>36.66748046875</ele>
        <time>2013-09-01T04:34:33Z</time>
      </trkpt>
      <trkpt lat="14.217458423227072" lon="101.406509410589933">
        <ele>36.66748046875</ele>
        <time>2013-09-01T04:34:37Z</time>
      </trkpt>
      <trkpt lat="14.217444760724902" lon="101.406551068648696">
        <ele>36.66748046875</ele>
        <time>2013-09-01T04:34:38Z</time>
      </trkpt>
      <trkpt lat="14.217244936153293" lon="101.407249113544822">
        <ele>35.2254638671875</ele>
        <time>2013-09-01T04:34:56Z</time>
      </trkpt>
      <trkpt lat="14.217041507363319" lon="101.407312480732799">
        <ele>35.2254638671875</ele>
        <time>2013-09-01T04:35:02Z</time>
      </trkpt>
      <trkpt lat="14.216931285336614" lon="101.407199325039983">
        <ele>36.186767578125</ele>
        <time>2013-09-01T04:35:06Z</time>
      </trkpt>
      <trkpt lat="14.216755349189043" lon="101.406543776392937">
        <ele>36.186767578125</ele>
        <time>2013-09-01T04:35:22Z</time>
      </trkpt>
      <trkpt lat="14.216755433008075" lon="101.406517960131168">
        <ele>37.1480712890625</ele>
        <time>2013-09-01T04:35:33Z</time>
      </trkpt>
      <trkpt lat="14.216770268976688" lon="101.406521312892437">
        <ele>32.341552734375</ele>
        <time>2013-09-01T04:36:07Z</time>
      </trkpt>
      <trkpt lat="14.216779405251145" lon="101.40653220936656">
        <ele>35.2254638671875</ele>
        <time>2013-09-01T04:36:46Z</time>
      </trkpt>
    </trkseg>
  </trk>

</gpx>
